sensor_id;sensor_type;location;lat;lon;timestamp;P1;durP1;ratioP1;P2;durP2;ratioP2
10641;SDS011;5369;49.586;8.646;2022-10-18T00:01:14;8.27;;;7.23;;
10641;SDS011;5369;49.586;8.646;2022-10-18T00:03:41;10.57;;;7.50;;
10641;SDS011;5369;49.586;8.646;2022-10-18T00:06:11;10.17;;;7.90;;
10641;SDS011;5369;49.586;8.646;2022-10-18T00:08:38;12.93;;;7.87;;
10641;SDS011;5369;49.586;8.646;2022-10-18T00:11:04;9.37;;;6.97;;
10641;SDS011;5369;49.586;8.646;2022-10-18T00:13:30;8.30;;;6.60;;
10641;SDS011;5369;49.586;8.646;2022-10-18T00:15:59;9.87;;;6.87;;
10641;SDS011;5369;49.586;8.646;2022-10-18T00:18:26;12.30;;;7.70;;
10641;SDS011;5369;49.586;8.646;2022-10-18T00:20:59;14.07;;;9.00;;
10641;SDS011;5369;49.586;8.646;2022-10-18T00:23:27;15.80;;;8.87;;
10641;SDS011;5369;49.586;8.646;2022-10-18T00:25:58;11.60;;;8.67;;
10641;SDS011;5369;49.586;8.646;2022-10-18T00:28:29;14.33;;;7.97;;
10641;SDS011;5369;49.586;8.646;2022-10-18T00:30:55;11.97;;;7.27;;
10641;SDS011;5369;49.586;8.646;2022-10-18T00:33:21;13.40;;;7.80;;
10641;SDS011;5369;49.586;8.646;2022-10-18T00:35:47;14.77;;;8.20;;
10641;SDS011;5369;49.586;8.646;2022-10-18T00:38:13;10.73;;;8.23;;
10641;SDS011;5369;49.586;8.646;2022-10-18T00:40:39;8.63;;;7.70;;
10641;SDS011;5369;49.586;8.646;2022-10-18T00:43:05;11.73;;;7.20;;
10641;SDS011;5369;49.586;8.646;2022-10-18T00:45:32;12.50;;;7.03;;
10641;SDS011;5369;49.586;8.646;2022-10-18T00:47:59;8.47;;;6.97;;
10641;SDS011;5369;49.586;8.646;2022-10-18T00:50:28;11.80;;;6.70;;
10641;SDS011;5369;49.586;8.646;2022-10-18T00:53:00;14.37;;;7.23;;
10641;SDS011;5369;49.586;8.646;2022-10-18T00:55:29;7.67;;;6.87;;
10641;SDS011;5369;49.586;8.646;2022-10-18T00:57:56;11.57;;;7.30;;
10641;SDS011;5369;49.586;8.646;2022-10-18T01:00:23;9.63;;;7.07;;
10641;SDS011;5369;49.586;8.646;2022-10-18T01:02:49;8.77;;;6.27;;
10641;SDS011;5369;49.586;8.646;2022-10-18T01:05:15;12.13;;;6.40;;
10641;SDS011;5369;49.586;8.646;2022-10-18T01:07:57;9.37;;;5.90;;
10641;SDS011;5369;49.586;8.646;2022-10-18T01:10:51;10.77;;;5.97;;
10641;SDS011;5369;49.586;8.646;2022-10-18T01:13:40;6.63;;;4.97;;
10641;SDS011;5369;49.586;8.646;2022-10-18T01:16:35;11.17;;;5.60;;
10641;SDS011;5369;49.586;8.646;2022-10-18T01:19:15;7.30;;;5.67;;
10641;SDS011;5369;49.586;8.646;2022-10-18T01:22:06;9.97;;;6.17;;
10641;SDS011;5369;49.586;8.646;2022-10-18T01:24:42;10.80;;;6.90;;
10641;SDS011;5369;49.586;8.646;2022-10-18T01:27:29;12.93;;;6.87;;
10641;SDS011;5369;49.586;8.646;2022-10-18T01:33:01;9.93;;;8.20;;
10641;SDS011;5369;49.586;8.646;2022-10-18T01:35:30;12.80;;;8.50;;
10641;SDS011;5369;49.586;8.646;2022-10-18T01:37:58;11.87;;;8.03;;
10641;SDS011;5369;49.586;8.646;2022-10-18T01:40:27;9.60;;;8.60;;
10641;SDS011;5369;49.586;8.646;2022-10-18T01:42:54;12.03;;;8.20;;
10641;SDS011;5369;49.586;8.646;2022-10-18T01:45:20;12.50;;;8.30;;
10641;SDS011;5369;49.586;8.646;2022-10-18T01:47:47;13.03;;;7.40;;
10641;SDS011;5369;49.586;8.646;2022-10-18T01:50:14;12.53;;;7.33;;
10641;SDS011;5369;49.586;8.646;2022-10-18T01:52:52;9.37;;;6.70;;
10641;SDS011;5369;49.586;8.646;2022-10-18T01:55:18;7.80;;;6.33;;
10641;SDS011;5369;49.586;8.646;2022-10-18T01:58:10;10.53;;;6.93;;
10641;SDS011;5369;49.586;8.646;2022-10-18T02:00:40;7.37;;;6.10;;
10641;SDS011;5369;49.586;8.646;2022-10-18T02:05:38;7.80;;;6.40;;
10641;SDS011;5369;49.586;8.646;2022-10-18T02:13:05;8.07;;;6.57;;
10641;SDS011;5369;49.586;8.646;2022-10-18T02:15:32;7.47;;;6.20;;
10641;SDS011;5369;49.586;8.646;2022-10-18T02:18:00;13.43;;;6.67;;
10641;SDS011;5369;49.586;8.646;2022-10-18T02:20:26;8.63;;;6.43;;
10641;SDS011;5369;49.586;8.646;2022-10-18T02:22:54;9.90;;;6.53;;
10641;SDS011;5369;49.586;8.646;2022-10-18T02:25:23;9.27;;;6.40;;
10641;SDS011;5369;49.586;8.646;2022-10-18T02:27:53;8.73;;;6.90;;
10641;SDS011;5369;49.586;8.646;2022-10-18T02:30:20;12.47;;;6.47;;
10641;SDS011;5369;49.586;8.646;2022-10-18T02:35:17;11.17;;;6.17;;
10641;SDS011;5369;49.586;8.646;2022-10-18T02:37:45;7.00;;;5.77;;
10641;SDS011;5369;49.586;8.646;2022-10-18T02:40:13;8.63;;;6.30;;
10641;SDS011;5369;49.586;8.646;2022-10-18T02:42:44;6.67;;;5.83;;
10641;SDS011;5369;49.586;8.646;2022-10-18T02:45:12;8.40;;;6.17;;
10641;SDS011;5369;49.586;8.646;2022-10-18T02:47:38;6.80;;;5.90;;
10641;SDS011;5369;49.586;8.646;2022-10-18T02:50:05;10.47;;;6.00;;
10641;SDS011;5369;49.586;8.646;2022-10-18T02:52:31;8.07;;;5.80;;
10641;SDS011;5369;49.586;8.646;2022-10-18T02:54:57;6.23;;;5.53;;
10641;SDS011;5369;49.586;8.646;2022-10-18T02:57:23;7.67;;;5.80;;
10641;SDS011;5369;49.586;8.646;2022-10-18T02:59:49;14.37;;;6.03;;
10641;SDS011;5369;49.586;8.646;2022-10-18T03:02:15;6.00;;;5.40;;
10641;SDS011;5369;49.586;8.646;2022-10-18T03:04:41;9.13;;;5.60;;
10641;SDS011;5369;49.586;8.646;2022-10-18T03:07:07;7.27;;;6.40;;
10641;SDS011;5369;49.586;8.646;2022-10-18T03:09:34;7.10;;;5.53;;
10641;SDS011;5369;49.586;8.646;2022-10-18T03:12:00;7.60;;;6.20;;
10641;SDS011;5369;49.586;8.646;2022-10-18T03:14:26;11.53;;;6.37;;
10641;SDS011;5369;49.586;8.646;2022-10-18T03:16:52;10.70;;;6.53;;
10641;SDS011;5369;49.586;8.646;2022-10-18T03:19:17;7.10;;;5.77;;
10641;SDS011;5369;49.586;8.646;2022-10-18T03:21:43;7.60;;;5.70;;
10641;SDS011;5369;49.586;8.646;2022-10-18T03:24:09;10.40;;;5.53;;
10641;SDS011;5369;49.586;8.646;2022-10-18T03:26:34;6.50;;;5.70;;
10641;SDS011;5369;49.586;8.646;2022-10-18T03:29:00;7.63;;;5.20;;
10641;SDS011;5369;49.586;8.646;2022-10-18T03:31:26;5.50;;;4.73;;
10641;SDS011;5369;49.586;8.646;2022-10-18T03:33:52;5.40;;;4.77;;
10641;SDS011;5369;49.586;8.646;2022-10-18T03:36:17;5.70;;;5.00;;
10641;SDS011;5369;49.586;8.646;2022-10-18T03:38:43;5.50;;;4.50;;
10641;SDS011;5369;49.586;8.646;2022-10-18T03:41:09;9.33;;;5.07;;
10641;SDS011;5369;49.586;8.646;2022-10-18T03:43:34;6.97;;;4.67;;
10641;SDS011;5369;49.586;8.646;2022-10-18T03:46:00;8.93;;;6.90;;
10641;SDS011;5369;49.586;8.646;2022-10-18T03:48:26;15.00;;;7.80;;
10641;SDS011;5369;49.586;8.646;2022-10-18T03:50:52;11.60;;;7.47;;
10641;SDS011;5369;49.586;8.646;2022-10-18T03:53:17;9.83;;;6.80;;
10641;SDS011;5369;49.586;8.646;2022-10-18T03:55:43;11.80;;;7.20;;
10641;SDS011;5369;49.586;8.646;2022-10-18T03:58:09;13.47;;;7.60;;
10641;SDS011;5369;49.586;8.646;2022-10-18T04:00:35;10.87;;;8.03;;
10641;SDS011;5369;49.586;8.646;2022-10-18T04:03:01;20.23;;;9.50;;
10641;SDS011;5369;49.586;8.646;2022-10-18T04:05:27;14.90;;;9.80;;
10641;SDS011;5369;49.586;8.646;2022-10-18T04:07:55;11.10;;;8.23;;
10641;SDS011;5369;49.586;8.646;2022-10-18T04:10:21;11.53;;;8.27;;
10641;SDS011;5369;49.586;8.646;2022-10-18T04:12:47;10.30;;;8.00;;
10641;SDS011;5369;49.586;8.646;2022-10-18T04:15:13;9.27;;;8.23;;
10641;SDS011;5369;49.586;8.646;2022-10-18T04:17:39;14.17;;;8.10;;
10641;SDS011;5369;49.586;8.646;2022-10-18T04:20:04;12.70;;;8.17;;
10641;SDS011;5369;49.586;8.646;2022-10-18T04:22:31;14.67;;;7.87;;
10641;SDS011;5369;49.586;8.646;2022-10-18T04:24:56;8.83;;;7.30;;
10641;SDS011;5369;49.586;8.646;2022-10-18T04:27:22;8.80;;;7.20;;
10641;SDS011;5369;49.586;8.646;2022-10-18T04:29:48;11.93;;;8.23;;
10641;SDS011;5369;49.586;8.646;2022-10-18T04:32:14;12.57;;;7.83;;
10641;SDS011;5369;49.586;8.646;2022-10-18T04:34:40;16.10;;;8.43;;
10641;SDS011;5369;49.586;8.646;2022-10-18T04:37:05;13.03;;;7.47;;
10641;SDS011;5369;49.586;8.646;2022-10-18T04:39:31;12.80;;;8.83;;
10641;SDS011;5369;49.586;8.646;2022-10-18T04:41:57;9.07;;;6.93;;
10641;SDS011;5369;49.586;8.646;2022-10-18T04:44:22;16.23;;;7.80;;
10641;SDS011;5369;49.586;8.646;2022-10-18T04:46:48;10.10;;;8.07;;
10641;SDS011;5369;49.586;8.646;2022-10-18T04:49:14;10.50;;;8.13;;
10641;SDS011;5369;49.586;8.646;2022-10-18T04:51:40;10.23;;;7.70;;
10641;SDS011;5369;49.586;8.646;2022-10-18T04:54:05;10.60;;;7.70;;
10641;SDS011;5369;49.586;8.646;2022-10-18T04:56:31;10.57;;;8.10;;
10641;SDS011;5369;49.586;8.646;2022-10-18T04:58:57;10.40;;;7.83;;
10641;SDS011;5369;49.586;8.646;2022-10-18T05:01:23;10.13;;;7.53;;
10641;SDS011;5369;49.586;8.646;2022-10-18T05:03:52;8.33;;;7.17;;
10641;SDS011;5369;49.586;8.646;2022-10-18T05:06:19;11.10;;;7.80;;
10641;SDS011;5369;49.586;8.646;2022-10-18T05:08:46;9.53;;;7.33;;
10641;SDS011;5369;49.586;8.646;2022-10-18T05:11:12;9.37;;;7.30;;
10641;SDS011;5369;49.586;8.646;2022-10-18T05:13:38;9.53;;;7.40;;
10641;SDS011;5369;49.586;8.646;2022-10-18T05:16:04;9.10;;;7.17;;
10641;SDS011;5369;49.586;8.646;2022-10-18T05:18:30;9.33;;;6.90;;
10641;SDS011;5369;49.586;8.646;2022-10-18T05:20:56;10.73;;;7.30;;
10641;SDS011;5369;49.586;8.646;2022-10-18T05:23:23;8.43;;;7.10;;
10641;SDS011;5369;49.586;8.646;2022-10-18T05:25:49;11.30;;;6.80;;
10641;SDS011;5369;49.586;8.646;2022-10-18T05:28:15;11.13;;;7.60;;
10641;SDS011;5369;49.586;8.646;2022-10-18T05:30:41;11.43;;;8.70;;
10641;SDS011;5369;49.586;8.646;2022-10-18T05:33:07;11.30;;;8.60;;
10641;SDS011;5369;49.586;8.646;2022-10-18T05:35:33;12.17;;;7.87;;
10641;SDS011;5369;49.586;8.646;2022-10-18T05:38:03;10.73;;;7.60;;
10641;SDS011;5369;49.586;8.646;2022-10-18T05:40:30;11.67;;;7.10;;
10641;SDS011;5369;49.586;8.646;2022-10-18T05:42:57;10.03;;;7.60;;
10641;SDS011;5369;49.586;8.646;2022-10-18T05:45:22;12.00;;;7.73;;
10641;SDS011;5369;49.586;8.646;2022-10-18T05:47:48;8.23;;;6.87;;
10641;SDS011;5369;49.586;8.646;2022-10-18T05:50:14;9.63;;;6.80;;
10641;SDS011;5369;49.586;8.646;2022-10-18T05:52:40;8.97;;;6.83;;
10641;SDS011;5369;49.586;8.646;2022-10-18T05:55:05;7.97;;;7.17;;
10641;SDS011;5369;49.586;8.646;2022-10-18T05:57:31;10.00;;;6.80;;
10641;SDS011;5369;49.586;8.646;2022-10-18T05:59:57;9.90;;;6.57;;
10641;SDS011;5369;49.586;8.646;2022-10-18T06:02:23;13.27;;;7.50;;
10641;SDS011;5369;49.586;8.646;2022-10-18T06:04:49;12.33;;;7.60;;
10641;SDS011;5369;49.586;8.646;2022-10-18T06:07:14;8.00;;;7.20;;
10641;SDS011;5369;49.586;8.646;2022-10-18T06:09:40;9.93;;;7.20;;
10641;SDS011;5369;49.586;8.646;2022-10-18T06:12:06;12.37;;;7.87;;
10641;SDS011;5369;49.586;8.646;2022-10-18T06:14:33;10.70;;;7.30;;
10641;SDS011;5369;49.586;8.646;2022-10-18T06:17:00;10.23;;;6.97;;
10641;SDS011;5369;49.586;8.646;2022-10-18T06:19:26;10.33;;;7.60;;
10641;SDS011;5369;49.586;8.646;2022-10-18T06:21:57;9.83;;;7.07;;
10641;SDS011;5369;49.586;8.646;2022-10-18T06:24:22;11.23;;;7.10;;
10641;SDS011;5369;49.586;8.646;2022-10-18T06:26:48;11.90;;;7.07;;
10641;SDS011;5369;49.586;8.646;2022-10-18T06:29:14;11.20;;;6.93;;
10641;SDS011;5369;49.586;8.646;2022-10-18T06:31:40;12.00;;;7.43;;
10641;SDS011;5369;49.586;8.646;2022-10-18T06:34:05;8.73;;;7.47;;
10641;SDS011;5369;49.586;8.646;2022-10-18T06:36:31;8.43;;;7.40;;
10641;SDS011;5369;49.586;8.646;2022-10-18T06:38:57;10.33;;;7.10;;
10641;SDS011;5369;49.586;8.646;2022-10-18T06:41:24;10.97;;;7.97;;
10641;SDS011;5369;49.586;8.646;2022-10-18T06:43:50;8.43;;;7.10;;
10641;SDS011;5369;49.586;8.646;2022-10-18T06:46:17;10.50;;;8.10;;
10641;SDS011;5369;49.586;8.646;2022-10-18T06:48:43;10.23;;;7.43;;
10641;SDS011;5369;49.586;8.646;2022-10-18T06:51:10;13.73;;;7.17;;
10641;SDS011;5369;49.586;8.646;2022-10-18T06:53:37;11.40;;;7.33;;
10641;SDS011;5369;49.586;8.646;2022-10-18T06:56:05;11.07;;;7.90;;
10641;SDS011;5369;49.586;8.646;2022-10-18T06:58:37;9.87;;;7.80;;
10641;SDS011;5369;49.586;8.646;2022-10-18T07:01:05;8.30;;;7.40;;
10641;SDS011;5369;49.586;8.646;2022-10-18T07:03:35;12.97;;;7.90;;
10641;SDS011;5369;49.586;8.646;2022-10-18T07:06:01;9.53;;;8.40;;
10641;SDS011;5369;49.586;8.646;2022-10-18T07:08:28;12.70;;;8.27;;
10641;SDS011;5369;49.586;8.646;2022-10-18T07:10:54;10.27;;;7.83;;
10641;SDS011;5369;49.586;8.646;2022-10-18T07:13:21;10.63;;;8.73;;
10641;SDS011;5369;49.586;8.646;2022-10-18T07:15:47;11.77;;;8.67;;
10641;SDS011;5369;49.586;8.646;2022-10-18T07:18:13;12.43;;;8.40;;
10641;SDS011;5369;49.586;8.646;2022-10-18T07:20:38;11.30;;;8.17;;
10641;SDS011;5369;49.586;8.646;2022-10-18T07:23:04;12.23;;;8.60;;
10641;SDS011;5369;49.586;8.646;2022-10-18T07:25:33;11.50;;;8.30;;
10641;SDS011;5369;49.586;8.646;2022-10-18T07:27:59;14.03;;;8.10;;
10641;SDS011;5369;49.586;8.646;2022-10-18T07:30:25;11.17;;;8.13;;
10641;SDS011;5369;49.586;8.646;2022-10-18T07:32:51;11.40;;;8.93;;
10641;SDS011;5369;49.586;8.646;2022-10-18T07:35:17;15.30;;;8.67;;
10641;SDS011;5369;49.586;8.646;2022-10-18T07:37:43;12.83;;;8.87;;
10641;SDS011;5369;49.586;8.646;2022-10-18T07:40:08;10.17;;;8.33;;
10641;SDS011;5369;49.586;8.646;2022-10-18T07:42:37;15.07;;;9.23;;
10641;SDS011;5369;49.586;8.646;2022-10-18T07:45:03;14.63;;;8.70;;
10641;SDS011;5369;49.586;8.646;2022-10-18T07:47:29;11.63;;;9.03;;
10641;SDS011;5369;49.586;8.646;2022-10-18T07:49:55;12.17;;;9.30;;
10641;SDS011;5369;49.586;8.646;2022-10-18T07:52:20;9.40;;;8.40;;
10641;SDS011;5369;49.586;8.646;2022-10-18T07:54:46;11.53;;;9.00;;
10641;SDS011;5369;49.586;8.646;2022-10-18T07:57:12;10.60;;;8.40;;
10641;SDS011;5369;49.586;8.646;2022-10-18T07:59:37;13.23;;;9.13;;
10641;SDS011;5369;49.586;8.646;2022-10-18T08:02:03;12.60;;;8.90;;
10641;SDS011;5369;49.586;8.646;2022-10-18T08:04:29;14.17;;;9.20;;
10641;SDS011;5369;49.586;8.646;2022-10-18T08:06:55;10.20;;;8.03;;
10641;SDS011;5369;49.586;8.646;2022-10-18T08:09:20;11.53;;;8.17;;
10641;SDS011;5369;49.586;8.646;2022-10-18T08:11:46;8.40;;;7.50;;
10641;SDS011;5369;49.586;8.646;2022-10-18T08:14:12;9.40;;;8.17;;
10641;SDS011;5369;49.586;8.646;2022-10-18T08:16:38;11.57;;;8.20;;
10641;SDS011;5369;49.586;8.646;2022-10-18T08:19:03;12.70;;;8.57;;
10641;SDS011;5369;49.586;8.646;2022-10-18T08:21:29;10.63;;;7.80;;
10641;SDS011;5369;49.586;8.646;2022-10-18T08:23:55;10.07;;;8.47;;
10641;SDS011;5369;49.586;8.646;2022-10-18T08:26:21;13.00;;;7.57;;
10641;SDS011;5369;49.586;8.646;2022-10-18T08:28:48;12.63;;;7.83;;
10641;SDS011;5369;49.586;8.646;2022-10-18T08:31:15;10.33;;;7.87;;
10641;SDS011;5369;49.586;8.646;2022-10-18T08:33:42;10.63;;;8.07;;
10641;SDS011;5369;49.586;8.646;2022-10-18T08:36:09;13.07;;;9.00;;
10641;SDS011;5369;49.586;8.646;2022-10-18T08:38:37;10.20;;;7.60;;
10641;SDS011;5369;49.586;8.646;2022-10-18T08:44:04;11.23;;;8.13;;
10641;SDS011;5369;49.586;8.646;2022-10-18T08:46:43;9.10;;;7.27;;
10641;SDS011;5369;49.586;8.646;2022-10-18T08:49:19;12.23;;;8.37;;
10641;SDS011;5369;49.586;8.646;2022-10-18T08:51:52;11.63;;;8.10;;
10641;SDS011;5369;49.586;8.646;2022-10-18T08:54:21;11.27;;;8.50;;
10641;SDS011;5369;49.586;8.646;2022-10-18T08:57:13;12.47;;;8.27;;
10641;SDS011;5369;49.586;8.646;2022-10-18T08:59:42;14.53;;;8.37;;
10641;SDS011;5369;49.586;8.646;2022-10-18T09:07:40;13.03;;;7.60;;
10641;SDS011;5369;49.586;8.646;2022-10-18T09:10:39;12.23;;;7.77;;
10641;SDS011;5369;49.586;8.646;2022-10-18T09:13:29;10.73;;;7.70;;
10641;SDS011;5369;49.586;8.646;2022-10-18T09:16:25;11.70;;;8.30;;
10641;SDS011;5369;49.586;8.646;2022-10-18T09:21:50;11.33;;;8.37;;
10641;SDS011;5369;49.586;8.646;2022-10-18T09:24:20;13.87;;;8.40;;
10641;SDS011;5369;49.586;8.646;2022-10-18T09:26:53;12.23;;;7.70;;
10641;SDS011;5369;49.586;8.646;2022-10-18T09:37:48;10.47;;;7.70;;
10641;SDS011;5369;49.586;8.646;2022-10-18T09:40:18;10.83;;;8.20;;
10641;SDS011;5369;49.586;8.646;2022-10-18T09:42:57;13.63;;;7.90;;
10641;SDS011;5369;49.586;8.646;2022-10-18T09:45:30;15.20;;;8.83;;
10641;SDS011;5369;49.586;8.646;2022-10-18T09:48:12;11.50;;;8.67;;
10641;SDS011;5369;49.586;8.646;2022-10-18T09:51:09;11.20;;;9.10;;
10641;SDS011;5369;49.586;8.646;2022-10-18T09:53:59;11.50;;;9.10;;
10641;SDS011;5369;49.586;8.646;2022-10-18T09:56:40;11.50;;;8.60;;
10641;SDS011;5369;49.586;8.646;2022-10-18T10:01:54;10.30;;;7.90;;
10641;SDS011;5369;49.586;8.646;2022-10-18T10:04:20;8.90;;;8.00;;
10641;SDS011;5369;49.586;8.646;2022-10-18T10:06:50;13.40;;;8.30;;
10641;SDS011;5369;49.586;8.646;2022-10-18T10:09:17;10.77;;;7.57;;
10641;SDS011;5369;49.586;8.646;2022-10-18T10:11:50;12.10;;;8.03;;
10641;SDS011;5369;49.586;8.646;2022-10-18T10:14:22;10.13;;;8.20;;
10641;SDS011;5369;49.586;8.646;2022-10-18T10:19:29;11.53;;;8.67;;
10641;SDS011;5369;49.586;8.646;2022-10-18T10:21:59;11.03;;;7.27;;
10641;SDS011;5369;49.586;8.646;2022-10-18T10:24:49;11.57;;;7.80;;
10641;SDS011;5369;49.586;8.646;2022-10-18T10:29:57;13.93;;;7.17;;
10641;SDS011;5369;49.586;8.646;2022-10-18T10:32:25;10.23;;;7.83;;
10641;SDS011;5369;49.586;8.646;2022-10-18T10:34:53;10.43;;;7.57;;
10641;SDS011;5369;49.586;8.646;2022-10-18T10:40:06;11.67;;;8.23;;
10641;SDS011;5369;49.586;8.646;2022-10-18T10:42:56;11.60;;;8.53;;
10641;SDS011;5369;49.586;8.646;2022-10-18T10:45:29;10.27;;;8.20;;
10641;SDS011;5369;49.586;8.646;2022-10-18T10:48:02;14.10;;;10.07;;
10641;SDS011;5369;49.586;8.646;2022-10-18T10:50:31;14.97;;;10.83;;
10641;SDS011;5369;49.586;8.646;2022-10-18T10:53:27;13.57;;;10.20;;
10641;SDS011;5369;49.586;8.646;2022-10-18T10:55:55;13.87;;;10.77;;
10641;SDS011;5369;49.586;8.646;2022-10-18T10:58:23;16.83;;;12.07;;
10641;SDS011;5369;49.586;8.646;2022-10-18T11:00:51;12.40;;;10.77;;
10641;SDS011;5369;49.586;8.646;2022-10-18T11:03:17;13.77;;;10.80;;
10641;SDS011;5369;49.586;8.646;2022-10-18T11:05:49;13.80;;;11.13;;
10641;SDS011;5369;49.586;8.646;2022-10-18T11:08:37;15.47;;;11.60;;
10641;SDS011;5369;49.586;8.646;2022-10-18T11:11:18;11.27;;;9.87;;
10641;SDS011;5369;49.586;8.646;2022-10-18T11:14:17;14.63;;;10.87;;
10641;SDS011;5369;49.586;8.646;2022-10-18T11:20:02;12.87;;;11.43;;
10641;SDS011;5369;49.586;8.646;2022-10-18T11:22:36;13.20;;;10.67;;
10641;SDS011;5369;49.586;8.646;2022-10-18T11:25:25;16.00;;;10.40;;
10641;SDS011;5369;49.586;8.646;2022-10-18T11:31:01;12.67;;;10.40;;
10641;SDS011;5369;49.586;8.646;2022-10-18T11:33:58;12.90;;;10.63;;
10641;SDS011;5369;49.586;8.646;2022-10-18T11:36:46;13.80;;;10.17;;
10641;SDS011;5369;49.586;8.646;2022-10-18T11:39:28;12.50;;;11.20;;
10641;SDS011;5369;49.586;8.646;2022-10-18T11:42:17;15.23;;;12.03;;
10641;SDS011;5369;49.586;8.646;2022-10-18T11:50:21;13.83;;;11.93;;
10641;SDS011;5369;49.586;8.646;2022-10-18T11:53:18;13.67;;;9.97;;
10641;SDS011;5369;49.586;8.646;2022-10-18T12:02:02;13.30;;;11.87;;
10641;SDS011;5369;49.586;8.646;2022-10-18T12:04:47;13.00;;;11.37;;
10641;SDS011;5369;49.586;8.646;2022-10-18T12:07:25;19.20;;;13.27;;
10641;SDS011;5369;49.586;8.646;2022-10-18T12:09:56;16.90;;;14.27;;
10641;SDS011;5369;49.586;8.646;2022-10-18T12:12:31;16.77;;;12.83;;
10641;SDS011;5369;49.586;8.646;2022-10-18T12:15:06;15.53;;;12.03;;
10641;SDS011;5369;49.586;8.646;2022-10-18T12:17:42;81.57;;;47.93;;
10641;SDS011;5369;49.586;8.646;2022-10-18T12:20:28;49.00;;;32.20;;
10641;SDS011;5369;49.586;8.646;2022-10-18T12:23:11;34.63;;;23.90;;
10641;SDS011;5369;49.586;8.646;2022-10-18T12:25:42;53.57;;;36.17;;
10641;SDS011;5369;49.586;8.646;2022-10-18T12:31:14;24.37;;;18.33;;
10641;SDS011;5369;49.586;8.646;2022-10-18T12:33:53;18.90;;;14.17;;
10641;SDS011;5369;49.586;8.646;2022-10-18T12:39:11;16.27;;;12.47;;
10641;SDS011;5369;49.586;8.646;2022-10-18T12:42:02;16.07;;;14.43;;
10641;SDS011;5369;49.586;8.646;2022-10-18T12:44:31;17.03;;;13.63;;
10641;SDS011;5369;49.586;8.646;2022-10-18T12:47:02;20.37;;;14.90;;
10641;SDS011;5369;49.586;8.646;2022-10-18T12:52:06;16.87;;;14.97;;
10641;SDS011;5369;49.586;8.646;2022-10-18T12:54:59;17.03;;;14.10;;
10641;SDS011;5369;49.586;8.646;2022-10-18T13:01:03;14.73;;;12.77;;
10641;SDS011;5369;49.586;8.646;2022-10-18T13:24:11;30.07;;;22.63;;
10641;SDS011;5369;49.586;8.646;2022-10-18T13:26:46;26.37;;;18.73;;
10641;SDS011;5369;49.586;8.646;2022-10-18T13:32:22;17.67;;;13.37;;
10641;SDS011;5369;49.586;8.646;2022-10-18T13:34:48;15.90;;;12.80;;
10641;SDS011;5369;49.586;8.646;2022-10-18T13:39:40;12.57;;;11.23;;
10641;SDS011;5369;49.586;8.646;2022-10-18T13:44:38;14.57;;;11.73;;
10641;SDS011;5369;49.586;8.646;2022-10-18T13:52:25;19.93;;;17.87;;
10641;SDS011;5369;49.586;8.646;2022-10-18T13:55:12;16.77;;;14.90;;
10641;SDS011;5369;49.586;8.646;2022-10-18T14:03:26;11.83;;;10.63;;
10641;SDS011;5369;49.586;8.646;2022-10-18T14:19:38;11.97;;;10.47;;
10641;SDS011;5369;49.586;8.646;2022-10-18T14:24:43;13.30;;;9.93;;
10641;SDS011;5369;49.586;8.646;2022-10-18T14:27:25;11.13;;;10.13;;
10641;SDS011;5369;49.586;8.646;2022-10-18T14:30:27;14.97;;;11.17;;
10641;SDS011;5369;49.586;8.646;2022-10-18T14:32:47;16.27;;;13.03;;
10641;SDS011;5369;49.586;8.646;2022-10-18T14:35:15;26.40;;;15.63;;
10641;SDS011;5369;49.586;8.646;2022-10-18T14:37:41;24.40;;;16.37;;
10641;SDS011;5369;49.586;8.646;2022-10-18T14:43:09;17.60;;;12.47;;
10641;SDS011;5369;49.586;8.646;2022-10-18T14:45:37;15.73;;;10.63;;
10641;SDS011;5369;49.586;8.646;2022-10-18T14:48:05;25.20;;;14.67;;
10641;SDS011;5369;49.586;8.646;2022-10-18T14:50:41;33.47;;;17.37;;
10641;SDS011;5369;49.586;8.646;2022-10-18T14:53:13;18.43;;;12.40;;
10641;SDS011;5369;49.586;8.646;2022-10-18T14:55:44;16.37;;;11.57;;
10641;SDS011;5369;49.586;8.646;2022-10-18T14:58:18;12.60;;;9.70;;
10641;SDS011;5369;49.586;8.646;2022-10-18T15:00:45;11.73;;;9.63;;
10641;SDS011;5369;49.586;8.646;2022-10-18T15:03:12;10.63;;;9.60;;
10641;SDS011;5369;49.586;8.646;2022-10-18T15:05:53;10.80;;;9.50;;
10641;SDS011;5369;49.586;8.646;2022-10-18T15:08:21;11.00;;;9.30;;
10641;SDS011;5369;49.586;8.646;2022-10-18T15:10:49;11.07;;;9.43;;
10641;SDS011;5369;49.586;8.646;2022-10-18T15:13:15;11.47;;;9.47;;
10641;SDS011;5369;49.586;8.646;2022-10-18T15:15:41;12.83;;;9.63;;
10641;SDS011;5369;49.586;8.646;2022-10-18T15:18:22;11.40;;;10.20;;
10641;SDS011;5369;49.586;8.646;2022-10-18T15:21:05;13.40;;;10.37;;
10641;SDS011;5369;49.586;8.646;2022-10-18T15:23:32;11.13;;;9.97;;
10641;SDS011;5369;49.586;8.646;2022-10-18T15:25:59;11.47;;;9.60;;
10641;SDS011;5369;49.586;8.646;2022-10-18T15:28:40;12.67;;;9.90;;
10641;SDS011;5369;49.586;8.646;2022-10-18T15:31:26;10.83;;;8.77;;
10641;SDS011;5369;49.586;8.646;2022-10-18T15:36:43;11.23;;;10.00;;
10641;SDS011;5369;49.586;8.646;2022-10-18T15:39:15;14.20;;;10.90;;
10641;SDS011;5369;49.586;8.646;2022-10-18T15:41:52;15.43;;;12.23;;
10641;SDS011;5369;49.586;8.646;2022-10-18T15:44:24;15.43;;;12.33;;
10641;SDS011;5369;49.586;8.646;2022-10-18T15:46:55;13.37;;;11.87;;
10641;SDS011;5369;49.586;8.646;2022-10-18T15:58:04;14.63;;;10.03;;
10641;SDS011;5369;49.586;8.646;2022-10-18T16:00:35;11.97;;;9.70;;
10641;SDS011;5369;49.586;8.646;2022-10-18T16:03:01;13.37;;;9.87;;
10641;SDS011;5369;49.586;8.646;2022-10-18T16:05:27;13.03;;;9.83;;
10641;SDS011;5369;49.586;8.646;2022-10-18T16:07:52;10.63;;;9.00;;
10641;SDS011;5369;49.586;8.646;2022-10-18T16:10:18;10.77;;;9.57;;
10641;SDS011;5369;49.586;8.646;2022-10-18T16:12:45;10.53;;;9.33;;
10641;SDS011;5369;49.586;8.646;2022-10-18T16:15:10;13.10;;;9.63;;
10641;SDS011;5369;49.586;8.646;2022-10-18T16:17:36;10.67;;;9.60;;
10641;SDS011;5369;49.586;8.646;2022-10-18T16:20:02;9.37;;;8.47;;
10641;SDS011;5369;49.586;8.646;2022-10-18T16:22:29;11.30;;;8.77;;
10641;SDS011;5369;49.586;8.646;2022-10-18T16:24:54;10.97;;;9.07;;
10641;SDS011;5369;49.586;8.646;2022-10-18T16:27:20;15.00;;;9.53;;
10641;SDS011;5369;49.586;8.646;2022-10-18T16:29:47;11.60;;;8.97;;
10641;SDS011;5369;49.586;8.646;2022-10-18T16:32:13;10.23;;;8.17;;
10641;SDS011;5369;49.586;8.646;2022-10-18T16:34:38;11.10;;;8.63;;
10641;SDS011;5369;49.586;8.646;2022-10-18T16:37:04;12.53;;;8.30;;
10641;SDS011;5369;49.586;8.646;2022-10-18T16:39:30;10.60;;;7.90;;
10641;SDS011;5369;49.586;8.646;2022-10-18T16:41:59;8.30;;;7.50;;
10641;SDS011;5369;49.586;8.646;2022-10-18T16:44:25;8.50;;;7.63;;
10641;SDS011;5369;49.586;8.646;2022-10-18T16:46:50;9.67;;;7.80;;
10641;SDS011;5369;49.586;8.646;2022-10-18T16:49:22;8.73;;;7.20;;
10641;SDS011;5369;49.586;8.646;2022-10-18T16:51:49;9.83;;;7.53;;
10641;SDS011;5369;49.586;8.646;2022-10-18T16:54:18;10.53;;;8.07;;
10641;SDS011;5369;49.586;8.646;2022-10-18T16:56:44;9.27;;;8.30;;
10641;SDS011;5369;49.586;8.646;2022-10-18T16:59:26;9.20;;;8.17;;
10641;SDS011;5369;49.586;8.646;2022-10-18T17:01:54;10.43;;;8.03;;
10641;SDS011;5369;49.586;8.646;2022-10-18T17:04:20;11.27;;;9.03;;
10641;SDS011;5369;49.586;8.646;2022-10-18T17:06:46;10.95;;;9.25;;
10641;SDS011;5369;49.586;8.646;2022-10-18T17:09:13;13.60;;;10.60;;
10641;SDS011;5369;49.586;8.646;2022-10-18T17:11:40;12.53;;;8.80;;
10641;SDS011;5369;49.586;8.646;2022-10-18T17:14:06;15.10;;;10.10;;
10641;SDS011;5369;49.586;8.646;2022-10-18T17:16:32;12.23;;;9.00;;
10641;SDS011;5369;49.586;8.646;2022-10-18T17:19:00;11.70;;;9.93;;
10641;SDS011;5369;49.586;8.646;2022-10-18T17:21:28;10.70;;;8.80;;
10641;SDS011;5369;49.586;8.646;2022-10-18T17:23:55;10.17;;;8.57;;
10641;SDS011;5369;49.586;8.646;2022-10-18T17:26:24;7.73;;;7.03;;
10641;SDS011;5369;49.586;8.646;2022-10-18T17:28:55;9.27;;;8.27;;